Pitts, Georgia
Current Conditions -  °F | °C
As of 10:55 AM on Thursday 23 Oct 2014 (Local Time) from KCKF Reporting Station
Clear Clear  
Wind Chill: 62°   Ceiling: Unl
Heat Index: 62°   Visibility: 10mi
Dew Point: 43°   Wind: 3mph
Humidity: 51%   Direction: 130°SE
Pressure: 30.15"   Gusts: NA
Location:  31.94°N, 83.54°W
Report Text: KCKF 231455Z AUTO 13003KT 10SM CLR 16/06 A3015 RMK AO2 T01640063
Loading
Personal Weather Stations






























Interactive Weather Map New forecast layout! Learn more

10-Day Weather Forecast

Advertisements
Track Severe Weather on mobile